Etusivu
METAR-TAF:

METAR-TAF

Lentoasemat :

Reims, Ranska

Leveyspiiri: 49-12-31N, Pituuspiiri: 004-09-24E, korkeus merenpinnasta: 95 m

Tämänhetkinen sää

Tämä raportti tehtiin 38 minuuttia sitten, kello 12.30 UTC
Tuuli 11 kn lännestä
Lämpötila 20°C
Kosteus 60%
Ilmanpaine 1016 hPa
Näkyvyys 10 km tai enemmän
ei pilviä alle 1500 m:ssä eikä cumulonimbus-pilviä

METAR: LFQA 101230Z AUTO 28011KT CAVOK 20/12 Q1016

Aika: 15:08 (13:08 UTC)


TAF: puuttuu

Säähavainnot ja -ennusteet yli 4000 lentoasemalta (METAR- ja TAF-raportit).

Käytössä olevat sääasemat on merkitty karttaan keltaisilla ja punaisilla pisteillä.

Aseta hiiri pisteen päälle nähdäksesi sääaseman nimen.

Klikkaa sitten nähdäksesi säähavainnot ja -ennusteet.

Kartan vaihtaminen: klikkaa mustalla rastilla varustettuja vihreitä pisteitä, niin voit zoomata sisään; viivalla varustettua vihreää pistettä, niin voit zoomata ulos tai vihreitä nuolia, niin pääset viereisille kartoille.


METAR-TAF: